Lesknedalar — FHKS — position and weather

sailwx.info

Track history (hours):
 
Tides and Currents Weather Stations Pressure Air Temp Water Temp Dewpoint Dewpoint Depression Visibility Wind Speed Wind Dir Waves Ship Positions

Lesknedalar

Last reported at 2018-Jun-21 05:55 UTC. Time now 2018-Jun-21 16:29 UTC.
Position N 48°06' W 004°19'.

Length 16 m.

Type: Fishing. MMSI: 228160000.

Date/timePositionNaut miles runAvg speedWind from/ knotsBaromVisibWave heightAir tempDewpointWater temp
2018-Jun-21 05:55N 48°06' W 004°19'0 0.0
2018-Jun-21 05:28N 48°06' W 004°19'0 0.0
2018-Jun-21 05:00N 48°06' W 004°19'0 0.0
2018-Jun-21 04:30N 48°06' W 004°19'4 8.3
2018-Jun-21 04:00N 48°09' W 004°24'4 9.0
2018-Jun-21 03:31N 48°11' W 004°30'2 3.8
2018-Jun-21 02:58N 48°09' W 004°33'0 0.9
2018-Jun-21 02:31N 48°10' W 004°32'4 8.2
2018-Jun-21 02:00N 48°12' W 004°27'4 7.3
2018-Jun-21 01:31N 48°10' W 004°23'2 4.8
2018-Jun-21 01:01N 48°12' W 004°24'4 7.0
2018-Jun-21 00:30N 48°11' W 004°19'4 7.1
2018-Jun-21 00:00N 48°12' W 004°24'1 1.5
2018-Jun-20 23:30N 48°12' W 004°24'1 2.2
2018-Jun-20 23:00N 48°11' W 004°23'1 1.1
2018-Jun-20 22:30N 48°12' W 004°23'0 0.3
2018-Jun-20 22:00N 48°12' W 004°23'1 1.8
2018-Jun-20 21:30N 48°11' W 004°22'4 8.1
2018-Jun-20 21:00N 48°07' W 004°20'2 0.1
2018-Jun-20 05:57N 48°06' W 004°19'0 0.0
2018-Jun-20 05:30N 48°06' W 004°19'0 0.0
2018-Jun-20 05:00N 48°06' W 004°19'4 7.3
2018-Jun-20 04:30N 48°09' W 004°22'3 6.0
2018-Jun-20 04:00N 48°12' W 004°24'0 0.3
2018-Jun-20 03:31N 48°12' W 004°25'1 1.4
2018-Jun-20 03:01N 48°11' W 004°26'2 4.2
2018-Jun-20 02:30N 48°10' W 004°28'4 7.7
2018-Jun-20 02:00N 48°09' W 004°33'4 8.6
2018-Jun-20 01:31N 48°09' W 004°40'4 8.1
2018-Jun-20 01:01N 48°11' W 004°45'2 4.7
2018-Jun-20 00:30N 48°09' W 004°43'0 0.8
2018-Jun-20 00:01N 48°09' W 004°43'1 2.7
2018-Jun-19 23:30N 48°09' W 004°41'4 8.9
2018-Jun-19 23:01N 48°12' W 004°36'3 5.8
2018-Jun-19 22:29N 48°10' W 004°32'4 8.2
2018-Jun-19 22:00N 48°12' W 004°27'4 8.1
2018-Jun-19 21:31N 48°10' W 004°22'4 8.5
2018-Jun-19 21:00N 48°06' W 004°19'1 0.0
2018-Jun-19 06:03N 48°06' W 004°19'0 0.0
2018-Jun-19 05:57N 48°06' W 004°19'0 0.0
2018-Jun-19 05:29N 48°06' W 004°19'1 1.1
2018-Jun-19 05:00N 48°06' W 004°20'5 9.7
2018-Jun-19 04:30N 48°07' W 004°27'510.0
2018-Jun-19 04:00N 48°08' W 004°35'0 0.5
2018-Jun-19 03:30N 48°08' W 004°35'2 3.5
2018-Jun-19 03:00N 48°09' W 004°32'3 5.9
2018-Jun-19 02:30N 48°07' W 004°36'5 9.5
2018-Jun-19 02:00N 48°04' W 004°42'4 7.0
2018-Jun-19 01:30N 48°01' W 004°44'4 5.7
2018-Jun-19 00:48N 47°57' W 004°44'6 8.9
2018-Jun-19 00:10N 47°58' W 004°52'1 8.9
2018-Jun-19 00:01N 47°59' W 004°52'3 6.5
2018-Jun-18 23:30N 47°59' W 004°47'5 8.8
2018-Jun-18 22:55N 47°59' W 004°40'1 2.9
2018-Jun-18 22:26N 47°59' W 004°38'3 7.2
2018-Jun-18 21:58N 47°59' W 004°33'6 5.9
2018-Jun-18 20:59N 47°55' W 004°25'3 3.4
2018-Jun-18 19:58N 47°52' W 004°24'1 0.1
2018-Jun-18 00:58N 47°51' W 004°25'6 5.9
2018-Jun-17 23:58N 47°57' W 004°27'2 2.3
2018-Jun-17 22:58N 47°58' W 004°30'1 1.1
2018-Jun-17 21:43N 47°58' W 004°28'2 2.9
2018-Jun-17 20:58N 47°56' W 004°27'8 7.7
2018-Jun-17 19:58N 47°49' W 004°24'  
2018-Jun-15 02:38N 47°49' W 004°23'4 5.5
2018-Jun-15 01:58N 47°46' W 004°20'7 6.6
2018-Jun-15 00:58N 47°46' W 004°10'6 5.1
2018-Jun-14 23:48N 47°46' W 004°19'5 6.6
2018-Jun-14 22:58N 47°50' W 004°23'8 7.7
2018-Jun-14 21:58N 47°56' W 004°30'1 1.0
2018-Jun-14 20:59N 47°55' W 004°30'8 8.2
2018-Jun-14 19:59N 47°49' W 004°23'0 0.0
2018-Jun-14 03:48N 47°49' W 004°23'1 0.3
2018-Jun-14 00:33N 47°49' W 004°24'2 6.5
2018-Jun-14 00:10N 47°52' W 004°25'1 5.5
2018-Jun-13 23:58N 47°53' W 004°26'1 1.3
2018-Jun-13 22:53N 47°54' W 004°27'4 8.5
2018-Jun-13 22:27N 47°50' W 004°25'2 3.7
2018-Jun-13 21:58N 47°52' W 004°24'1 1.1
2018-Jun-13 20:59N 47°51' W 004°24'2 0.1
2018-Jun-13 00:54N 47°49' W 004°23'6 6.7
2018-Jun-12 23:58N 47°55' W 004°24'4 4.5
2018-Jun-12 22:58N 47°50' W 004°24'0 0.4
2018-Jun-12 21:54N 47°51' W 004°24'1 1.4
2018-Jun-12 20:58N 47°52' W 004°24'0 0.4
2018-Jun-12 19:58N 47°52' W 004°24'2 0.1
2018-Jun-12 01:53N 47°49' W 004°25'8 9.1
2018-Jun-12 00:58N 47°57' W 004°29'3 2.2
2018-Jun-11 23:48N 47°59' W 004°32'0 0.6
2018-Jun-11 22:58N 47°59' W 004°32'2 1.7
2018-Jun-11 22:01N 47°58' W 004°29'0 9.5
2018-Jun-11 21:58N 47°58' W 004°29'3 3.1
2018-Jun-11 20:58N 47°56' W 004°26'5 4.6
2018-Jun-11 19:58N 47°51' W 004°24'  
Track history (hours):
 
Tides and Currents Weather Stations Pressure Air Temp Water Temp Dewpoint Dewpoint Depression Visibility Wind Speed Wind Dir Waves Ship Positions

Lesknedalar

Last reported at 2018-Jun-21 05:55 UTC. Time now 2018-Jun-21 16:29 UTC.
Position N 48°06' W 004°19'.

Length 16 m.

Type: Fishing. MMSI: 228160000.

Date/timePositionNaut miles runAvg speedWind from/ knotsBaromVisibWave heightAir tempDewpointWater temp
2018-Jun-21 05:55N 48°06' W 004°19'0 0.0
2018-Jun-21 05:28N 48°06' W 004°19'0 0.0
2018-Jun-21 05:00N 48°06' W 004°19'0 0.0
2018-Jun-21 04:30N 48°06' W 004°19'4 8.3
2018-Jun-21 04:00N 48°09' W 004°24'4 9.0
2018-Jun-21 03:31N 48°11' W 004°30'2 3.8
2018-Jun-21 02:58N 48°09' W 004°33'0 0.9
2018-Jun-21 02:31N 48°10' W 004°32'4 8.2
2018-Jun-21 02:00N 48°12' W 004°27'4 7.3
2018-Jun-21 01:31N 48°10' W 004°23'2 4.8
2018-Jun-21 01:01N 48°12' W 004°24'4 7.0
2018-Jun-21 00:30N 48°11' W 004°19'4 7.1
2018-Jun-21 00:00N 48°12' W 004°24'1 1.5
2018-Jun-20 23:30N 48°12' W 004°24'1 2.2
2018-Jun-20 23:00N 48°11' W 004°23'1 1.1
2018-Jun-20 22:30N 48°12' W 004°23'0 0.3
2018-Jun-20 22:00N 48°12' W 004°23'1 1.8
2018-Jun-20 21:30N 48°11' W 004°22'4 8.1
2018-Jun-20 21:00N 48°07' W 004°20'2 0.1
2018-Jun-20 05:57N 48°06' W 004°19'0 0.0
2018-Jun-20 05:30N 48°06' W 004°19'0 0.0
2018-Jun-20 05:00N 48°06' W 004°19'4 7.3
2018-Jun-20 04:30N 48°09' W 004°22'3 6.0
2018-Jun-20 04:00N 48°12' W 004°24'0 0.3
2018-Jun-20 03:31N 48°12' W 004°25'1 1.4
2018-Jun-20 03:01N 48°11' W 004°26'2 4.2
2018-Jun-20 02:30N 48°10' W 004°28'4 7.7
2018-Jun-20 02:00N 48°09' W 004°33'4 8.6
2018-Jun-20 01:31N 48°09' W 004°40'4 8.1
2018-Jun-20 01:01N 48°11' W 004°45'2 4.7
2018-Jun-20 00:30N 48°09' W 004°43'0 0.8
2018-Jun-20 00:01N 48°09' W 004°43'1 2.7
2018-Jun-19 23:30N 48°09' W 004°41'4 8.9
2018-Jun-19 23:01N 48°12' W 004°36'3 5.8
2018-Jun-19 22:29N 48°10' W 004°32'4 8.2
2018-Jun-19 22:00N 48°12' W 004°27'4 8.1
2018-Jun-19 21:31N 48°10' W 004°22'4 8.5
2018-Jun-19 21:00N 48°06' W 004°19'1 0.0
2018-Jun-19 06:03N 48°06' W 004°19'0 0.0
2018-Jun-19 05:57N 48°06' W 004°19'0 0.0
2018-Jun-19 05:29N 48°06' W 004°19'1 1.1
2018-Jun-19 05:00N 48°06' W 004°20'5 9.7
2018-Jun-19 04:30N 48°07' W 004°27'510.0
2018-Jun-19 04:00N 48°08' W 004°35'0 0.5
2018-Jun-19 03:30N 48°08' W 004°35'2 3.5
2018-Jun-19 03:00N 48°09' W 004°32'3 5.9
2018-Jun-19 02:30N 48°07' W 004°36'5 9.5
2018-Jun-19 02:00N 48°04' W 004°42'4 7.0
2018-Jun-19 01:30N 48°01' W 004°44'4 5.7
2018-Jun-19 00:48N 47°57' W 004°44'6 8.9
2018-Jun-19 00:10N 47°58' W 004°52'1 8.9
2018-Jun-19 00:01N 47°59' W 004°52'3 6.5
2018-Jun-18 23:30N 47°59' W 004°47'5 8.8
2018-Jun-18 22:55N 47°59' W 004°40'1 2.9
2018-Jun-18 22:26N 47°59' W 004°38'3 7.2
2018-Jun-18 21:58N 47°59' W 004°33'6 5.9
2018-Jun-18 20:59N 47°55' W 004°25'3 3.4
2018-Jun-18 19:58N 47°52' W 004°24'1 0.1
2018-Jun-18 00:58N 47°51' W 004°25'6 5.9
2018-Jun-17 23:58N 47°57' W 004°27'2 2.3
2018-Jun-17 22:58N 47°58' W 004°30'1 1.1
2018-Jun-17 21:43N 47°58' W 004°28'2 2.9
2018-Jun-17 20:58N 47°56' W 004°27'8 7.7
2018-Jun-17 19:58N 47°49' W 004°24'  
2018-Jun-15 02:38N 47°49' W 004°23'4 5.5
2018-Jun-15 01:58N 47°46' W 004°20'7 6.6
2018-Jun-15 00:58N 47°46' W 004°10'6 5.1
2018-Jun-14 23:48N 47°46' W 004°19'5 6.6
2018-Jun-14 22:58N 47°50' W 004°23'8 7.7
2018-Jun-14 21:58N 47°56' W 004°30'1 1.0
2018-Jun-14 20:59N 47°55' W 004°30'8 8.2
2018-Jun-14 19:59N 47°49' W 004°23'0 0.0
2018-Jun-14 03:48N 47°49' W 004°23'1 0.3
2018-Jun-14 00:33N 47°49' W 004°24'2 6.5
2018-Jun-14 00:10N 47°52' W 004°25'1 5.5
2018-Jun-13 23:58N 47°53' W 004°26'1 1.3
2018-Jun-13 22:53N 47°54' W 004°27'4 8.5
2018-Jun-13 22:27N 47°50' W 004°25'2 3.7
2018-Jun-13 21:58N 47°52' W 004°24'1 1.1
2018-Jun-13 20:59N 47°51' W 004°24'2 0.1
2018-Jun-13 00:54N 47°49' W 004°23'6 6.7
2018-Jun-12 23:58N 47°55' W 004°24'4 4.5
2018-Jun-12 22:58N 47°50' W 004°24'0 0.4
2018-Jun-12 21:54N 47°51' W 004°24'1 1.4
2018-Jun-12 20:58N 47°52' W 004°24'0 0.4
2018-Jun-12 19:58N 47°52' W 004°24'2 0.1
2018-Jun-12 01:53N 47°49' W 004°25'8 9.1
2018-Jun-12 00:58N 47°57' W 004°29'3 2.2
2018-Jun-11 23:48N 47°59' W 004°32'0 0.6
2018-Jun-11 22:58N 47°59' W 004°32'2 1.7
2018-Jun-11 22:01N 47°58' W 004°29'0 9.5
2018-Jun-11 21:58N 47°58' W 004°29'3 3.1
2018-Jun-11 20:58N 47°56' W 004°26'5 4.6
2018-Jun-11 19:58N 47°51' W 004°24'  

Dump ship's entire track history